createdAt,value
2023-04-13T00:00:47.928Z,97438.65
2023-04-13T00:02:56.240Z,97443.95
2023-04-13T00:04:59.018Z,97446.58
2023-04-13T00:07:03.645Z,97447.23
2023-04-13T00:09:08.953Z,97445.20
2023-04-13T00:11:13.466Z,97446.48
2023-04-13T00:13:16.232Z,97436.58
2023-04-13T00:15:20.103Z,97422.91
2023-04-13T00:17:25.457Z,97416.96
2023-04-13T00:19:28.596Z,97427.40
2023-04-13T00:21:31.619Z,97425.54
2023-04-13T00:23:37.465Z,97429.50
2023-04-13T00:25:43.426Z,97430.03
2023-04-13T00:27:46.882Z,97441.02
2023-04-13T00:29:49.879Z,97439.17
2023-04-13T00:31:53.694Z,97432.15
2023-04-13T00:33:57.296Z,97425.73
2023-04-13T00:36:05.898Z,97432.64
2023-04-13T00:38:09.386Z,97432.08
2023-04-13T00:40:19.038Z,97434.52
2023-04-13T00:42:22.799Z,97423.95
2023-04-13T00:44:26.100Z,97427.02
2023-04-13T00:46:29.586Z,97437.83
2023-04-13T00:48:35.152Z,97441.16
2023-04-13T00:50:39.647Z,97444.23
2023-04-13T00:52:44.600Z,97451.54
2023-04-13T00:54:51.773Z,97442.15
2023-04-13T00:56:55.197Z,97437.54
2023-04-13T00:58:59.176Z,97438.45
2023-04-13T01:01:03.210Z,97447.45
2023-04-13T01:03:06.043Z,97451.45
2023-04-13T01:05:12.563Z,97450.71
2023-04-13T01:07:32.321Z,97455.93
2023-04-13T01:09:42.361Z,97456.59
2023-04-13T01:11:58.029Z,97453.40
2023-04-13T01:14:09.234Z,97459.77
2023-04-13T01:16:22.204Z,97463.34
2023-04-13T01:18:27.727Z,97461.57
2023-04-13T01:20:33.522Z,97464.98
2023-04-13T01:22:45.647Z,97464.38
2023-04-13T01:25:15.201Z,97453.86
2023-04-13T01:27:23.487Z,97456.71
2023-04-13T01:29:28.619Z,97454.21
2023-04-13T01:31:33.268Z,97455.20
2023-04-13T01:33:40.603Z,97463.19
2023-04-13T01:35:45.201Z,97467.71
2023-04-13T01:37:54.352Z,97469.80
2023-04-13T01:40:00.962Z,97473.70
2023-04-13T01:42:28.974Z,97472.60
2023-04-13T01:44:39.044Z,97477.33
2023-04-13T01:46:48.644Z,97476.71
2023-04-13T01:49:11.579Z,97476.71
2023-04-13T01:51:31.365Z,97469.20
2023-04-13T01:53:40.486Z,97461.91
2023-04-13T01:55:49.044Z,97459.43
2023-04-13T01:57:56.416Z,97462.96
2023-04-13T02:00:00.245Z,97466.35
2023-04-13T02:02:04.659Z,97465.17
2023-04-13T02:04:11.560Z,97471.19
2023-04-13T02:06:17.755Z,97480.94
2023-04-13T02:08:21.144Z,97480.95
2023-04-13T02:10:26.553Z,97479.59
2023-04-13T02:12:37.827Z,97481.72
2023-04-13T02:14:41.608Z,97484.55
2023-04-13T02:16:44.533Z,97490.76
2023-04-13T02:18:49.897Z,97492.30
2023-04-13T02:21:19.173Z,97499.03
2023-04-13T02:23:22.322Z,97492.94
2023-04-13T02:25:28.100Z,97500.20
2023-04-13T02:27:33.056Z,97502.71
2023-04-13T02:29:54.458Z,97504.79
2023-04-13T02:31:58.188Z,97502.88
2023-04-13T02:34:01.786Z,97501.90
2023-04-13T02:36:05.921Z,97494.65
2023-04-13T02:38:12.012Z,97492.50
2023-04-13T02:40:36.390Z,97492.02
2023-04-13T02:42:39.970Z,97486.73
2023-04-13T02:44:43.530Z,97482.23
2023-04-13T02:46:46.613Z,97479.80
2023-04-13T02:48:51.914Z,97476.45
2023-04-13T02:50:58.085Z,97471.55
2023-04-13T02:53:10.574Z,97468.98
2023-04-13T02:55:16.428Z,97462.85
2023-04-13T02:57:26.653Z,97462.67
2023-04-13T02:59:30.081Z,97461.70
2023-04-13T03:01:35.731Z,97459.41
2023-04-13T03:03:41.947Z,97463.12
2023-04-13T03:05:46.716Z,97462.41
2023-04-13T03:07:53.655Z,97456.96
2023-04-13T03:09:58.072Z,97457.73
2023-04-13T03:12:02.757Z,97459.16
2023-04-13T03:14:15.411Z,97463.12
2023-04-13T03:16:25.128Z,97467.14
2023-04-13T03:18:32.236Z,97471.75
2023-04-13T03:20:35.402Z,97473.27
2023-04-13T03:22:39.552Z,97471.27
2023-04-13T03:24:42.411Z,97470.24
2023-04-13T03:26:45.570Z,97472.31
2023-04-13T03:28:52.027Z,97475.27
2023-04-13T03:30:55.630Z,97477.78
2023-04-13T03:32:59.175Z,97478.19
2023-04-13T03:35:05.629Z,97483.68
2023-04-13T03:37:10.866Z,97483.30
2023-04-13T03:39:14.857Z,97486.31
2023-04-13T03:41:19.597Z,97488.98
2023-04-13T03:43:23.705Z,97487.61
2023-04-13T03:45:49.431Z,97489.15
2023-04-13T03:47:55.706Z,97490.89
2023-04-13T03:49:59.408Z,97490.80
2023-04-13T03:52:03.889Z,97490.25
2023-04-13T03:54:13.587Z,97496.83
2023-04-13T03:56:17.702Z,97499.71
2023-04-13T03:58:22.076Z,97500.70
2023-04-13T04:00:25.039Z,97502.59
2023-04-13T04:02:43.686Z,97502.30
2023-04-13T04:04:49.314Z,97503.91
2023-04-13T04:06:53.201Z,97509.10
2023-04-13T04:08:58.467Z,97509.53
2023-04-13T04:11:15.357Z,97509.49
2023-04-13T04:13:22.001Z,97509.27
2023-04-13T04:15:29.355Z,97513.39
2023-04-13T04:17:40.064Z,97517.41
2023-04-13T04:19:43.502Z,97517.50
2023-04-13T04:21:47.228Z,97518.67
2023-04-13T04:23:52.432Z,97525.27
2023-04-13T04:26:00.835Z,97527.06
2023-04-13T04:28:09.229Z,97531.30
2023-04-13T04:30:14.161Z,97535.27
2023-04-13T04:32:18.655Z,97546.02
2023-04-13T04:34:22.178Z,97550.86
2023-04-13T04:36:26.788Z,97554.02
2023-04-13T04:38:38.016Z,97559.66
2023-04-13T04:40:46.293Z,97559.40
2023-04-13T04:42:53.810Z,97560.63
2023-04-13T04:45:09.196Z,97556.89
2023-04-13T04:47:19.956Z,97556.91
2023-04-13T04:49:46.148Z,97560.34
2023-04-13T04:51:52.609Z,97559.23
2023-04-13T04:53:58.729Z,97556.77
2023-04-13T04:56:01.730Z,97558.92
2023-04-13T04:58:20.377Z,97564.23
2023-04-13T05:00:26.577Z,97563.85
2023-04-13T05:02:44.644Z,97564.21
2023-04-13T05:04:48.037Z,97564.45
2023-04-13T05:06:50.797Z,97561.10
2023-04-13T05:11:24.167Z,97565.77
2023-04-13T05:13:27.736Z,97564.48
2023-04-13T05:15:39.158Z,97565.23
2023-04-13T05:17:46.783Z,97564.08
2023-04-13T05:19:50.732Z,97562.95
2023-04-13T05:22:01.171Z,97561.92
2023-04-13T05:24:05.617Z,97560.01
2023-04-13T05:26:13.199Z,97559.98
2023-04-13T05:28:18.639Z,97562.73
2023-04-13T05:30:28.369Z,97568.50
2023-04-13T05:32:36.177Z,97575.73
2023-04-13T05:34:39.672Z,97580.14
2023-04-13T05:36:48.397Z,97585.17
2023-04-13T05:38:52.374Z,97582.90
2023-04-13T05:40:59.044Z,97583.94
2023-04-13T05:43:10.337Z,97584.12
2023-04-13T05:45:21.577Z,97576.92
2023-04-13T05:47:38.237Z,97576.92
2023-04-13T05:49:45.690Z,97577.03
2023-04-13T05:51:49.484Z,97575.91
2023-04-13T05:53:54.216Z,97578.35
2023-04-13T05:55:59.953Z,97571.45
2023-04-13T05:58:05.736Z,97566.48
2023-04-13T06:00:10.669Z,97569.73
2023-04-13T06:02:21.420Z,97568.41
2023-04-13T06:04:27.729Z,97572.02
2023-04-13T06:06:41.622Z,97573.47
2023-04-13T06:08:46.941Z,97568.47
2023-04-13T06:10:51.647Z,97567.41
2023-04-13T06:12:55.487Z,97567.95
2023-04-13T06:14:58.236Z,97571.87
2023-04-13T06:17:09.031Z,97572.45
2023-04-13T06:19:12.999Z,97578.38
2023-04-13T06:21:15.902Z,97582.09
2023-04-13T06:23:23.066Z,97581.81
2023-04-13T06:25:31.033Z,97580.79
2023-04-13T06:27:34.580Z,97580.13
2023-04-13T06:29:41.571Z,97583.29
2023-04-13T06:31:53.027Z,97583.23
2023-04-13T06:34:00.425Z,97585.80
2023-04-13T06:36:10.755Z,97582.22
2023-04-13T06:38:14.765Z,97584.02
2023-04-13T06:40:28.320Z,97581.73
2023-04-13T06:42:40.583Z,97578.80
2023-04-13T06:45:13.818Z,97577.98
2023-04-13T06:47:21.606Z,97581.86
2023-04-13T06:49:24.652Z,97578.66
2023-04-13T06:51:28.063Z,97575.73
2023-04-13T06:53:33.926Z,97578.20
2023-04-13T06:55:37.282Z,97578.58
2023-04-13T06:57:53.065Z,97578.17
2023-04-13T06:59:56.607Z,97577.16
2023-04-13T07:02:00.417Z,97575.61
2023-04-13T07:04:08.348Z,97578.02
2023-04-13T07:06:12.410Z,97581.23
2023-04-13T07:08:16.549Z,97583.93
2023-04-13T07:10:19.799Z,97587.57
2023-04-13T07:12:23.237Z,97589.16
2023-04-13T07:14:30.250Z,97588.55
2023-04-13T07:16:35.766Z,97592.88
2023-04-13T07:18:39.875Z,97593.08
2023-04-13T07:20:42.891Z,97594.30
2023-04-13T07:22:46.396Z,97591.30
2023-04-13T07:24:51.822Z,97590.21
2023-04-13T07:26:59.408Z,97590.77
2023-04-13T07:29:02.350Z,97594.01
2023-04-13T07:31:09.288Z,97592.30
2023-04-13T07:33:14.423Z,97595.33
2023-04-13T07:35:18.181Z,97597.81
2023-04-13T07:37:21.697Z,97596.02
2023-04-13T07:39:24.706Z,97598.98
2023-04-13T07:41:29.548Z,97599.36
2023-04-13T07:43:35.488Z,97601.11
2023-04-13T07:45:39.962Z,97599.98
2023-04-13T07:47:43.422Z,97598.79
2023-04-13T07:49:47.328Z,97605.95
2023-04-13T07:52:00.067Z,97607.39
2023-04-13T07:54:05.096Z,97610.48
2023-04-13T07:56:09.055Z,97613.38
2023-04-13T07:58:14.634Z,97613.91
2023-04-13T08:00:21.060Z,97616.77
2023-04-13T08:02:26.352Z,97616.27
2023-04-13T08:04:32.371Z,97616.33
2023-04-13T08:06:43.716Z,97616.08
2023-04-13T08:08:48.028Z,97618.17
2023-04-13T08:10:52.205Z,97623.17
2023-04-13T08:12:55.373Z,97625.22
2023-04-13T08:15:00.928Z,97625.20
2023-04-13T08:17:06.163Z,97629.30
2023-04-13T08:19:09.776Z,97631.50
2023-04-13T08:21:16.021Z,97636.89
2023-04-13T08:23:21.190Z,97636.73
2023-04-13T08:25:25.606Z,97639.27
2023-04-13T08:27:31.934Z,97644.31
2023-04-13T08:29:41.236Z,97643.08
2023-04-13T08:31:47.676Z,97643.29
2023-04-13T08:33:52.149Z,97642.70
2023-04-13T08:35:57.196Z,97642.83
2023-04-13T08:38:02.588Z,97643.50
2023-04-13T08:40:08.223Z,97642.98
2023-04-13T08:42:11.950Z,97640.16
2023-04-13T08:44:15.783Z,97636.89
2023-04-13T08:46:21.483Z,97632.11
2023-04-13T08:48:30.311Z,97628.77
2023-04-13T08:50:36.826Z,97625.85
2023-04-13T08:52:40.275Z,97627.84
2023-04-13T08:54:52.512Z,97627.15
2023-04-13T08:57:00.186Z,97625.73
2023-04-13T08:59:09.199Z,97629.41
2023-04-13T09:01:16.456Z,97629.98
2023-04-13T09:03:26.208Z,97625.27
2023-04-13T09:05:31.649Z,97625.33
2023-04-13T09:07:38.820Z,97625.85
2023-04-13T09:09:48.090Z,97624.63
2023-04-13T09:11:52.283Z,97625.65
2023-04-13T09:13:55.368Z,97628.02
2023-04-13T09:16:00.814Z,97628.71
2023-04-13T09:18:16.492Z,97621.98
2023-04-13T09:20:25.338Z,97624.08
2023-04-13T09:22:29.290Z,97624.16
2023-04-13T09:24:40.185Z,97626.36
2023-04-13T09:26:47.835Z,97629.76
2023-04-13T09:28:56.535Z,97634.82
2023-04-13T09:31:05.883Z,97633.48
2023-04-13T09:33:10.523Z,97634.66
2023-04-13T09:35:14.158Z,97640.17
2023-04-13T09:37:22.232Z,97639.27
2023-04-13T09:39:29.747Z,97640.80
2023-04-13T09:41:38.668Z,97642.48
2023-04-13T09:43:45.445Z,97643.83
2023-04-13T09:45:49.111Z,97642.84
2023-04-13T09:47:53.259Z,97642.80
2023-04-13T09:49:57.240Z,97643.48
2023-04-13T09:52:00.171Z,97644.75
2023-04-13T09:54:03.752Z,97651.29
2023-04-13T09:56:07.110Z,97646.45
2023-04-13T09:58:14.831Z,97648.14
2023-04-13T10:00:22.465Z,97648.83
2023-04-13T10:02:39.074Z,97645.80
2023-04-13T10:04:45.889Z,97645.45
2023-04-13T10:07:05.344Z,97650.46
2023-04-13T10:09:10.807Z,97649.32
2023-04-13T10:11:15.395Z,97649.36
2023-04-13T10:13:23.506Z,97648.13
2023-04-13T10:15:51.899Z,97642.09
2023-04-13T10:18:12.854Z,97644.66
2023-04-13T10:20:31.236Z,97645.48
2023-04-13T10:22:36.235Z,97638.45
2023-04-13T10:24:39.902Z,97637.91
2023-04-13T10:26:46.166Z,97641.05
2023-04-13T10:28:59.518Z,97644.81
2023-04-13T10:31:05.597Z,97641.59
2023-04-13T10:33:10.757Z,97637.98
2023-04-13T10:35:16.470Z,97639.77
2023-04-13T10:37:34.212Z,97634.63
2023-04-13T10:39:38.746Z,97634.42
2023-04-13T10:42:00.543Z,97639.03
2023-04-13T10:44:12.385Z,97637.84
2023-04-13T10:46:16.577Z,97630.52
2023-04-13T10:48:21.863Z,97628.70
2023-04-13T10:50:27.860Z,97638.79
2023-04-13T10:52:31.719Z,97641.76
2023-04-13T10:54:36.372Z,97640.04
2023-04-13T10:56:40.892Z,97641.86
2023-04-13T10:58:44.653Z,97639.87
2023-04-13T11:00:58.413Z,97636.64
2023-04-13T11:03:02.962Z,97649.34
2023-04-13T11:05:06.846Z,97646.86
2023-04-13T11:07:17.719Z,97647.52
2023-04-13T11:09:22.840Z,97645.70
2023-04-13T11:11:28.064Z,97647.08
2023-04-13T11:13:33.918Z,97645.88
2023-04-13T11:16:00.909Z,97654.99
2023-04-13T11:18:06.686Z,97650.86
2023-04-13T11:20:31.581Z,97660.05
2023-04-13T11:22:35.932Z,97661.84
2023-04-13T11:24:38.662Z,97660.34
2023-04-13T11:26:43.261Z,97651.43
2023-04-13T11:28:47.644Z,97651.03
2023-04-13T11:31:21.612Z,97649.64
2023-04-13T11:33:33.418Z,97651.30
2023-04-13T11:35:49.733Z,97650.41
2023-04-13T11:37:56.030Z,97653.16
2023-04-13T11:39:59.451Z,97650.26
2023-04-13T11:42:07.184Z,97656.63
2023-04-13T11:44:13.074Z,97660.84
2023-04-13T11:46:24.103Z,97660.96
2023-04-13T11:48:29.197Z,97663.10
2023-04-13T11:50:32.717Z,97662.70
2023-04-13T11:52:36.017Z,97659.70
2023-04-13T11:54:40.848Z,97654.44
2023-04-13T11:56:43.784Z,97648.48
2023-04-13T11:58:50.174Z,97645.09
2023-04-13T12:00:56.963Z,97644.11
2023-04-13T12:03:15.212Z,97641.34
2023-04-13T12:05:28.833Z,97645.04
2023-04-13T12:07:33.370Z,97643.67
2023-04-13T12:09:56.320Z,97641.38
2023-04-13T12:12:45.000Z,97640.47
2023-04-13T12:18:49.540Z,97644.15
2023-04-13T12:20:53.652Z,97642.64
2023-04-13T12:25:17.822Z,97640.95
2023-04-13T12:27:20.582Z,97648.80
2023-04-13T12:29:23.444Z,97648.55
2023-04-13T12:31:33.543Z,97649.76
2023-04-13T12:33:38.738Z,97653.22
2023-04-13T12:35:41.497Z,97649.83
2023-04-13T12:37:44.281Z,97654.50
2023-04-13T12:39:47.655Z,97659.95
2023-04-13T12:41:50.497Z,97662.46
2023-04-13T12:43:53.690Z,97663.24
2023-04-13T12:45:58.367Z,97664.62
2023-04-13T12:48:01.083Z,97663.54
2023-04-13T12:50:08.709Z,97667.59
2023-04-13T12:52:11.589Z,97667.83
2023-04-13T12:54:14.698Z,97668.00
2023-04-13T12:56:17.387Z,97670.59
2023-04-13T12:58:20.069Z,97672.77
2023-04-13T13:00:35.408Z,97677.19
2023-04-13T13:02:40.341Z,97674.66
2023-04-13T13:04:43.686Z,97677.88
2023-04-13T13:06:46.716Z,97677.71
2023-04-13T13:08:51.003Z,97676.14
2023-04-13T13:10:53.725Z,97682.80
2023-04-13T13:12:57.430Z,97689.25
2023-04-13T13:15:01.517Z,97692.71
2023-04-13T13:17:04.988Z,97694.73
2023-04-13T13:19:14.324Z,97693.74
2023-04-13T13:21:29.825Z,97689.83
2023-04-13T13:23:33.514Z,97689.80
2023-04-13T13:25:38.139Z,97686.85
2023-04-13T13:28:10.478Z,97687.50
2023-04-13T13:30:09.900Z,97680.48
2023-04-13T13:32:12.903Z,97680.90
2023-04-13T13:34:16.662Z,97682.79
2023-04-13T13:36:42.797Z,97682.17
2023-04-13T13:38:47.437Z,97673.92
2023-04-13T13:40:59.252Z,97673.04
2023-04-13T13:43:02.293Z,97669.42
2023-04-13T13:45:05.973Z,97672.02
2023-04-13T13:47:09.107Z,97673.91
2023-04-13T13:49:14.649Z,97676.34
2023-04-13T13:51:35.453Z,97678.20
2023-04-13T13:53:38.617Z,97679.80
2023-04-13T13:55:41.684Z,97678.90
2023-04-13T13:57:44.264Z,97680.46
2023-04-13T13:59:49.241Z,97676.92
2023-04-13T14:01:53.103Z,97682.30
2023-04-13T14:03:56.761Z,97686.70
2023-04-13T14:06:24.763Z,97685.20
2023-04-13T14:08:28.678Z,97687.61
2023-04-13T14:10:32.146Z,97685.95
2023-04-13T14:12:36.571Z,97691.14
2023-04-13T14:14:39.647Z,97692.00
2023-04-13T14:16:44.262Z,97696.10
2023-04-13T14:18:49.054Z,97694.02
2023-04-13T14:20:52.355Z,97690.94
2023-04-13T14:22:57.200Z,97692.36
2023-04-13T14:25:02.267Z,97694.54
2023-04-13T14:27:06.446Z,97696.27
2023-04-13T14:29:11.188Z,97694.50
2023-04-13T14:31:17.286Z,97688.42
2023-04-13T14:33:20.760Z,97689.77
2023-04-13T14:35:23.416Z,97690.45
2023-04-13T14:37:28.099Z,97690.29
2023-04-13T14:39:32.507Z,97684.28
2023-04-13T14:41:35.665Z,97684.08
2023-04-13T14:43:38.983Z,97679.88
2023-04-13T14:45:42.925Z,97682.18
2023-04-13T14:47:48.742Z,97682.45
2023-04-13T14:49:52.960Z,97687.48
2023-04-13T14:51:58.386Z,97692.88
2023-04-13T14:54:01.589Z,97696.59
2023-04-13T14:56:05.472Z,97696.81
2023-04-13T14:58:09.277Z,97699.27
2023-04-13T15:00:22.249Z,97696.25
2023-04-13T15:02:28.769Z,97699.33
2023-04-13T15:04:32.736Z,97694.81
2023-04-13T15:06:36.199Z,97691.86
2023-04-13T15:08:40.081Z,97691.98
2023-04-13T15:10:42.987Z,97694.31
2023-04-13T15:12:46.276Z,97697.11
2023-04-13T15:14:56.277Z,97696.65
2023-04-13T15:17:04.602Z,97695.88
2023-04-13T15:19:10.070Z,97697.17
2023-04-13T15:21:13.905Z,97702.95
2023-04-13T15:23:20.145Z,97700.49
2023-04-13T15:25:24.626Z,97699.33
2023-04-13T15:27:27.975Z,97698.21
2023-04-13T15:29:34.715Z,97692.80
2023-04-13T15:31:40.047Z,97699.88
2023-04-13T15:33:44.677Z,97696.80
2023-04-13T15:35:47.370Z,97696.95
2023-04-13T15:37:50.837Z,97694.73
2023-04-13T15:39:54.641Z,97700.48
2023-04-13T15:42:00.386Z,97697.55
2023-04-13T15:44:06.036Z,97699.27
2023-04-13T15:46:09.031Z,97702.08
2023-04-13T15:48:13.256Z,97706.17
2023-04-13T15:50:18.905Z,97706.55
2023-04-13T15:52:21.814Z,97709.56
2023-04-13T15:54:24.422Z,97704.73
2023-04-13T15:56:28.516Z,97703.39
2023-04-13T15:58:33.269Z,97700.55
2023-04-13T16:00:37.528Z,97700.06
2023-04-13T16:02:41.112Z,97699.09
2023-04-13T16:04:46.098Z,97698.31
2023-04-13T16:07:05.141Z,97700.59
2023-04-13T16:09:14.316Z,97699.06
2023-04-13T16:11:21.174Z,97702.33
2023-04-13T16:13:24.930Z,97703.04
2023-04-13T16:15:31.044Z,97704.41
2023-04-13T16:17:35.225Z,97703.27
2023-04-13T16:19:40.062Z,97703.84
2023-04-13T16:21:43.490Z,97698.10
2023-04-13T16:23:46.911Z,97698.92
2023-04-13T16:25:51.055Z,97697.06
2023-04-13T16:27:56.281Z,97693.73
2023-04-13T16:29:59.775Z,97693.66
2023-04-13T16:32:09.117Z,97695.60
2023-04-13T16:36:24.697Z,97696.40
2023-04-13T16:38:31.294Z,97705.04
2023-04-13T16:40:34.131Z,97707.19
2023-04-13T16:42:38.957Z,97712.20
2023-04-13T16:44:43.580Z,97715.60
2023-04-13T16:46:46.665Z,97714.55
2023-04-13T16:48:52.574Z,97719.29
2023-04-13T16:51:04.677Z,97723.27
2023-04-13T16:53:08.119Z,97729.92
2023-04-13T16:55:16.316Z,97738.76
2023-04-13T16:57:21.556Z,97742.00
2023-04-13T16:59:24.123Z,97742.05
2023-04-13T17:01:28.127Z,97744.05
2023-04-13T17:03:32.988Z,97748.64
2023-04-13T17:05:36.083Z,97751.84
2023-04-13T17:07:40.925Z,97752.34
2023-04-13T17:09:43.607Z,97758.31
2023-04-13T17:11:47.581Z,97758.96
2023-04-13T17:13:53.870Z,97763.39
2023-04-13T17:15:56.852Z,97763.00
2023-04-13T17:17:59.566Z,97768.34
2023-04-13T17:20:05.728Z,97768.73
2023-04-13T17:22:10.686Z,97768.31
2023-04-13T17:24:14.994Z,97774.17
2023-04-13T17:26:17.945Z,97776.89
2023-04-13T17:28:24.469Z,97784.89
2023-04-13T17:30:29.420Z,97793.05
2023-04-13T17:32:35.115Z,97802.48
2023-04-13T17:34:39.252Z,97802.42
2023-04-13T17:36:42.285Z,97803.67
2023-04-13T17:38:44.884Z,97807.96
2023-04-13T17:40:51.069Z,97810.85
2023-04-13T17:42:54.246Z,97813.77
2023-04-13T17:44:56.788Z,97812.37
2023-04-13T17:47:00.972Z,97812.69
2023-04-13T17:49:04.898Z,97817.84
2023-04-13T17:51:13.217Z,97821.77
2023-04-13T17:53:16.499Z,97822.95
2023-04-13T17:55:19.989Z,97823.69
2023-04-13T17:57:24.184Z,97826.30
2023-04-13T17:59:28.399Z,97829.32
2023-04-13T18:01:33.062Z,97822.52
2023-04-13T18:03:40.241Z,97828.74
2023-04-13T18:05:47.255Z,97834.73
2023-04-13T18:07:50.716Z,97836.83
2023-04-13T18:09:53.875Z,97837.84
2023-04-13T18:11:58.946Z,97839.03
2023-04-13T18:14:03.860Z,97840.91
2023-04-13T18:16:07.162Z,97843.38
2023-04-13T18:18:10.477Z,97846.98
2023-04-13T18:20:13.573Z,97845.76
2023-04-13T18:22:17.361Z,97853.66
2023-04-13T18:24:21.733Z,97858.38
2023-04-13T18:26:24.843Z,97860.23
2023-04-13T18:28:31.740Z,97869.71
2023-04-13T18:30:34.926Z,97872.29
2023-04-13T18:32:37.724Z,97875.07
2023-04-13T18:34:44.050Z,97876.83
2023-04-13T18:37:00.211Z,97879.57
2023-04-13T18:39:04.196Z,97879.17
2023-04-13T18:41:10.431Z,97882.55
2023-04-13T18:43:13.759Z,97882.64
2023-04-13T18:45:19.418Z,97884.89
2023-04-13T18:47:29.045Z,97884.64
2023-04-13T18:49:35.088Z,97883.98
2023-04-13T18:51:37.873Z,97883.99
2023-04-13T18:53:40.806Z,97881.98
2023-04-13T18:55:51.965Z,97882.02
2023-04-13T18:58:00.455Z,97878.46
2023-04-13T19:00:10.501Z,97880.86
2023-04-13T19:02:15.738Z,97876.55
2023-04-13T19:04:18.918Z,97875.36
2023-04-13T19:06:22.001Z,97870.16
2023-04-13T19:08:24.827Z,97870.52
2023-04-13T19:10:28.222Z,97866.31
2023-04-13T19:12:32.849Z,97864.44
2023-04-13T19:14:35.753Z,97861.66
2023-04-13T19:16:48.223Z,97859.89
2023-04-13T19:18:52.522Z,97861.61
2023-04-13T19:20:56.679Z,97862.27
2023-04-13T19:22:59.881Z,97864.59
2023-04-13T19:25:03.498Z,97861.92
2023-04-13T19:27:07.582Z,97864.62
2023-04-13T19:29:14.384Z,97865.69
2023-04-13T19:31:17.243Z,97867.23
2023-04-13T19:33:20.055Z,97867.79
2023-04-13T19:35:24.494Z,97870.98
2023-04-13T19:37:28.504Z,97875.46
2023-04-13T19:39:31.470Z,97873.86
2023-04-13T19:41:37.481Z,97879.45
2023-04-13T19:43:42.738Z,97877.73
2023-04-13T19:45:46.631Z,97880.08
2023-04-13T19:47:49.708Z,97879.06
2023-04-13T19:49:52.375Z,97879.48
2023-04-13T19:51:59.290Z,97879.81
2023-04-13T19:54:05.690Z,97880.02
2023-04-13T19:56:10.978Z,97882.55
2023-04-13T19:58:14.311Z,97878.46
2023-04-13T20:00:17.977Z,97874.88
2023-04-13T20:02:20.933Z,97870.70
2023-04-13T20:04:25.400Z,97872.84
2023-04-13T20:06:28.997Z,97869.70
2023-04-13T20:08:32.113Z,97871.24
2023-04-13T20:10:34.962Z,97868.05
2023-04-13T20:12:38.147Z,97869.14
2023-04-13T20:14:42.462Z,97873.11
2023-04-13T20:16:47.802Z,97869.14
2023-04-13T20:18:51.191Z,97868.61
2023-04-13T20:20:54.308Z,97872.61
2023-04-13T20:22:59.982Z,97864.92
2023-04-13T20:25:04.258Z,97871.01
2023-04-13T20:27:10.616Z,97875.41
2023-04-13T20:29:19.043Z,97877.23
2023-04-13T20:31:23.625Z,97879.91
2023-04-13T20:33:28.444Z,97877.75
2023-04-13T20:35:32.623Z,97879.16
2023-04-13T20:37:35.889Z,97883.23
2023-04-13T20:39:52.602Z,97886.33
2023-04-13T20:41:57.010Z,97888.61
2023-04-13T20:44:00.337Z,97887.29
2023-04-13T20:46:05.015Z,97887.97
2023-04-13T20:50:27.001Z,97885.11
2023-04-13T20:52:32.801Z,97884.29
2023-04-13T20:54:35.638Z,97883.34
2023-04-13T20:56:38.847Z,97883.83
2023-04-13T20:58:42.355Z,97886.31
2023-04-13T21:00:48.590Z,97891.81
2023-04-13T21:02:52.990Z,97892.41
2023-04-13T21:04:59.000Z,97892.90
2023-04-13T21:07:03.350Z,97892.73
2023-04-13T21:09:08.652Z,97894.30
2023-04-13T21:11:11.635Z,97894.52
2023-04-13T21:13:16.182Z,97893.96
2023-04-13T21:15:18.820Z,97896.67
2023-04-13T21:17:21.863Z,97893.02
2023-04-13T21:19:25.797Z,97892.29
2023-04-13T21:21:28.344Z,97894.66
2023-04-13T21:23:31.132Z,97891.55
2023-04-13T21:25:34.911Z,97887.20
2023-04-13T21:27:38.591Z,97881.20
2023-04-13T21:29:41.851Z,97873.61
2023-04-13T21:31:44.944Z,97868.23
2023-04-13T21:33:50.003Z,97861.57
2023-04-13T21:35:52.908Z,97854.85
2023-04-13T21:37:55.514Z,97847.67
2023-04-13T21:39:59.029Z,97849.20
2023-04-13T21:42:04.663Z,97847.56
2023-04-13T21:44:22.308Z,97848.04
2023-04-13T21:46:32.091Z,97844.92
2023-04-13T21:48:34.897Z,97847.63
2023-04-13T21:50:38.774Z,97846.27
2023-04-13T21:52:42.186Z,97844.95
2023-04-13T21:54:46.301Z,97848.23
2023-04-13T21:56:49.387Z,97845.98
2023-04-13T21:58:52.242Z,97842.87
2023-04-13T22:00:56.207Z,97841.20
2023-04-13T22:03:00.840Z,97840.14
2023-04-13T22:05:07.654Z,97842.77
2023-04-13T22:07:10.517Z,97849.75
2023-04-13T22:09:13.597Z,97855.73
2023-04-13T22:11:17.013Z,97861.79
2023-04-13T22:13:21.244Z,97872.19
2023-04-13T22:15:26.853Z,97876.69
2023-04-13T22:17:30.530Z,97885.14
2023-04-13T22:19:33.843Z,97893.15
2023-04-13T22:21:40.830Z,97895.52
2023-04-13T22:23:46.232Z,97895.61
2023-04-13T22:25:53.679Z,97898.71
2023-04-13T22:27:58.611Z,97898.45
2023-04-13T22:30:02.721Z,97902.50
2023-04-13T22:32:09.249Z,97904.20
2023-04-13T22:34:11.902Z,97903.59
2023-04-13T22:36:19.573Z,97904.75
2023-04-13T22:38:22.215Z,97898.91
2023-04-13T22:40:24.959Z,97897.42
2023-04-13T22:42:28.488Z,97896.98
2023-04-13T22:44:37.680Z,97895.63
2023-04-13T22:46:42.483Z,97898.27
2023-04-13T22:48:45.416Z,97900.65
2023-04-13T22:50:51.047Z,97903.21
2023-04-13T22:52:54.695Z,97903.66
2023-04-13T22:54:57.339Z,97900.00
2023-04-13T22:57:05.399Z,97899.79
2023-04-13T22:59:08.429Z,97899.64
2023-04-13T23:01:12.808Z,97893.33
2023-04-13T23:03:16.093Z,97887.12
2023-04-13T23:05:19.486Z,97884.34
2023-04-13T23:07:22.278Z,97882.20
2023-04-13T23:09:25.684Z,97884.27
2023-04-13T23:11:28.704Z,97883.20
2023-04-13T23:13:32.854Z,97881.77
2023-04-13T23:15:36.108Z,97881.02
2023-04-13T23:17:38.727Z,97878.94
2023-04-13T23:19:42.384Z,97875.73
2023-04-13T23:21:46.142Z,97875.89
2023-04-13T23:23:49.236Z,97873.59
2023-04-13T23:25:52.106Z,97870.48
2023-04-13T23:27:54.855Z,97872.30
2023-04-13T23:29:57.722Z,97871.60
2023-04-13T23:32:00.749Z,97873.16
2023-04-13T23:34:03.529Z,97868.55
2023-04-13T23:36:07.105Z,97871.02
2023-04-13T23:38:13.834Z,97870.22
2023-04-13T23:40:18.101Z,97868.99
2023-04-13T23:42:21.216Z,97872.55
2023-04-13T23:44:24.098Z,97870.17
2023-04-13T23:46:28.786Z,97869.23
2023-04-13T23:48:31.781Z,97864.75
2023-04-13T23:50:34.332Z,97865.46
2023-04-13T23:52:37.130Z,97870.68
2023-04-13T23:54:39.873Z,97870.98
2023-04-13T23:56:43.027Z,97870.40
2023-04-13T23:58:46.625Z,97871.38
